createdAt,value
2022-10-13T00:01:26.894Z,83.66
2022-10-13T00:03:53.410Z,83.53
2022-10-13T00:06:21.782Z,83.73
2022-10-13T00:08:48.403Z,83.56
2022-10-13T00:11:19.119Z,83.46
2022-10-13T00:13:45.842Z,83.77
2022-10-13T00:16:14.272Z,84.03
2022-10-13T00:18:40.715Z,83.60
2022-10-13T00:21:09.119Z,83.84
2022-10-13T00:23:35.707Z,83.55
2022-10-13T00:26:03.614Z,84.01
2022-10-13T00:28:30.106Z,83.77
2022-10-13T00:30:56.611Z,84.22
2022-10-13T00:33:22.994Z,84.36
2022-10-13T00:35:49.552Z,83.73
2022-10-13T00:38:17.510Z,83.51
2022-10-13T00:40:50.439Z,83.57
2022-10-13T00:43:21.458Z,83.85
2022-10-13T00:45:50.730Z,83.99
2022-10-13T00:48:22.526Z,83.64
2022-10-13T00:50:49.050Z,83.72
2022-10-13T00:53:16.439Z,83.58
2022-10-13T00:55:43.760Z,84.15
2022-10-13T00:58:12.437Z,83.98
2022-10-13T01:00:38.906Z,83.22
2022-10-13T01:03:05.309Z,83.93
2022-10-13T01:05:31.758Z,84.12
2022-10-13T01:07:59.517Z,84.05
2022-10-13T01:10:29.049Z,83.46
2022-10-13T01:13:03.047Z,83.85
2022-10-13T01:15:37.146Z,83.82
2022-10-13T01:18:15.508Z,83.83
2022-10-13T01:21:00.336Z,83.29
2022-10-13T01:23:44.985Z,83.56
2022-10-13T01:26:23.950Z,83.26
2022-10-13T01:28:50.383Z,83.05
2022-10-13T01:31:29.932Z,83.61
2022-10-13T01:34:01.002Z,83.47
2022-10-13T01:36:27.453Z,83.64
2022-10-13T01:38:56.906Z,83.50
2022-10-13T01:41:27.312Z,83.72
2022-10-13T01:44:05.908Z,83.32
2022-10-13T01:46:37.666Z,83.79
2022-10-13T01:49:06.104Z,83.23
2022-10-13T01:51:33.712Z,83.32
2022-10-13T01:54:00.103Z,83.31
2022-10-13T01:56:26.557Z,83.53
2022-10-13T01:58:55.040Z,84.17
2022-10-13T02:01:21.383Z,83.64
2022-10-13T02:03:53.900Z,83.57
2022-10-13T02:06:49.791Z,83.64
2022-10-13T02:09:35.791Z,83.64
2022-10-13T02:12:05.901Z,83.85
2022-10-13T02:14:33.412Z,83.85
2022-10-13T02:17:01.284Z,83.59
2022-10-13T02:19:28.590Z,83.80
2022-10-13T02:21:56.467Z,84.13
2022-10-13T02:24:22.843Z,83.72
2022-10-13T02:26:50.145Z,83.55
2022-10-13T02:29:17.388Z,83.83
2022-10-13T02:31:44.370Z,83.60
2022-10-13T02:34:10.953Z,83.74
2022-10-13T02:36:40.494Z,83.60
2022-10-13T02:39:08.308Z,83.89
2022-10-13T02:41:34.846Z,83.80
2022-10-13T02:44:01.228Z,83.48
2022-10-13T02:46:27.696Z,83.53
2022-10-13T02:48:54.170Z,83.29
2022-10-13T02:51:20.543Z,83.74
2022-10-13T02:53:47.023Z,83.78
2022-10-13T02:56:13.420Z,83.69
2022-10-13T02:58:39.795Z,83.59
2022-10-13T03:01:07.424Z,84.01
2022-10-13T03:03:33.822Z,83.85
2022-10-13T03:06:00.901Z,83.78
2022-10-13T03:08:27.397Z,84.15
2022-10-13T03:10:53.816Z,84.14
2022-10-13T03:13:20.230Z,84.28
2022-10-13T03:15:47.648Z,84.43
2022-10-13T03:18:14.154Z,84.47
2022-10-13T03:20:40.518Z,85.01
2022-10-13T03:23:09.626Z,84.65
2022-10-13T03:25:36.009Z,84.62
2022-10-13T03:28:02.831Z,84.50
2022-10-13T03:30:29.632Z,84.99
2022-10-13T03:32:56.009Z,84.67
2022-10-13T03:35:22.366Z,84.18
2022-10-13T03:37:48.782Z,84.16
2022-10-13T03:40:15.273Z,84.17
2022-10-13T03:42:41.674Z,84.44
2022-10-13T03:45:08.504Z,84.86
2022-10-13T03:47:35.419Z,85.36
2022-10-13T03:50:01.890Z,86.10
2022-10-13T03:52:28.284Z,85.96
2022-10-13T03:54:54.652Z,86.18
2022-10-13T03:57:21.029Z,86.05
2022-10-13T03:59:47.461Z,85.91
2022-10-13T04:02:13.844Z,85.57
2022-10-13T04:04:40.342Z,85.46
2022-10-13T04:07:07.459Z,85.18
2022-10-13T04:09:34.138Z,85.89
2022-10-13T04:12:00.512Z,86.10
2022-10-13T04:14:26.972Z,86.28
2022-10-13T04:16:53.366Z,86.51
2022-10-13T04:19:19.792Z,87.10
2022-10-13T04:21:46.155Z,87.21
2022-10-13T04:24:12.965Z,86.93
2022-10-13T04:26:40.046Z,86.41
2022-10-13T04:29:07.636Z,87.09
2022-10-13T04:31:34.579Z,87.71
2022-10-13T04:34:00.981Z,88.37
2022-10-13T04:36:27.426Z,88.14
2022-10-13T04:38:54.512Z,87.93
2022-10-13T04:41:21.308Z,87.67
2022-10-13T04:43:48.522Z,89.19
2022-10-13T04:46:16.407Z,88.62
2022-10-13T04:48:42.822Z,89.01
2022-10-13T04:51:10.768Z,88.79
2022-10-13T04:53:37.534Z,88.17
2022-10-13T04:56:05.008Z,88.25
2022-10-13T04:58:31.983Z,88.23
2022-10-13T05:00:58.506Z,88.73
2022-10-13T05:03:25.093Z,88.50
2022-10-13T05:05:52.120Z,88.42
2022-10-13T05:08:18.552Z,87.85
2022-10-13T05:10:53.556Z,88.75
2022-10-13T05:13:19.965Z,88.40
2022-10-13T05:15:46.326Z,88.52
2022-10-13T05:18:12.904Z,88.28
2022-10-13T05:20:39.297Z,88.94
2022-10-13T05:23:05.698Z,89.54
2022-10-13T05:25:33.950Z,89.40
2022-10-13T05:28:00.470Z,89.69
2022-10-13T05:30:26.838Z,88.87
2022-10-13T05:32:54.085Z,89.24
2022-10-13T05:35:20.551Z,89.04
2022-10-13T05:37:47.006Z,89.07
2022-10-13T05:40:13.813Z,89.67
2022-10-13T05:42:40.184Z,89.95
2022-10-13T05:45:09.081Z,89.34
2022-10-13T05:47:35.596Z,89.12
2022-10-13T05:50:02.083Z,88.69
2022-10-13T05:52:28.845Z,89.23
2022-10-13T05:54:56.608Z,88.56
2022-10-13T05:57:26.328Z,89.48
2022-10-13T05:59:54.817Z,89.78
2022-10-13T06:02:24.147Z,90.22
2022-10-13T06:04:51.703Z,91.33
2022-10-13T06:07:18.129Z,91.41
2022-10-13T06:09:44.590Z,92.02
2022-10-13T06:12:11.015Z,92.16
2022-10-13T06:14:37.473Z,92.65
2022-10-13T06:17:03.959Z,92.55
2022-10-13T06:19:30.331Z,93.23
2022-10-13T06:22:00.019Z,92.71
2022-10-13T06:24:29.974Z,92.80
2022-10-13T06:26:56.396Z,92.76
2022-10-13T06:29:22.993Z,91.86
2022-10-13T06:31:49.437Z,91.83
2022-10-13T06:34:15.858Z,91.49
2022-10-13T06:36:42.264Z,91.59
2022-10-13T06:39:09.070Z,90.99
2022-10-13T06:41:35.484Z,91.52
2022-10-13T06:44:01.892Z,91.49
2022-10-13T06:46:28.248Z,91.43
2022-10-13T06:48:54.635Z,91.59
2022-10-13T06:51:21.184Z,91.28
2022-10-13T06:53:47.617Z,91.04
2022-10-13T06:56:14.355Z,91.19
2022-10-13T06:58:40.832Z,91.74
2022-10-13T07:01:07.347Z,91.24
2022-10-13T07:03:33.729Z,91.65
2022-10-13T07:06:03.951Z,91.48
2022-10-13T07:08:31.186Z,91.46
2022-10-13T07:10:57.930Z,91.56
2022-10-13T07:13:24.412Z,91.87
2022-10-13T07:15:50.849Z,92.27
2022-10-13T07:18:17.252Z,93.03
2022-10-13T07:20:43.679Z,93.67
2022-10-13T07:23:10.058Z,94.57
2022-10-13T07:25:37.599Z,94.66
2022-10-13T07:28:04.018Z,95.21
2022-10-13T07:30:30.421Z,96.51
2022-10-13T07:32:56.839Z,96.75
2022-10-13T07:35:29.639Z,96.72
2022-10-13T07:37:57.170Z,97.22
2022-10-13T07:40:23.594Z,97.00
2022-10-13T07:42:49.975Z,97.98
2022-10-13T07:45:16.405Z,97.86
2022-10-13T07:47:42.769Z,97.98
2022-10-13T07:50:10.277Z,97.87
2022-10-13T07:52:37.077Z,98.63
2022-10-13T07:55:03.683Z,98.69
2022-10-13T07:57:30.076Z,97.48
2022-10-13T07:59:56.536Z,97.13
2022-10-13T08:02:22.943Z,97.26
2022-10-13T08:04:49.322Z,96.76
2022-10-13T08:07:16.916Z,97.05
2022-10-13T08:09:44.222Z,98.29
2022-10-13T08:12:10.852Z,99.22
2022-10-13T08:14:37.472Z,99.86
2022-10-13T08:17:03.991Z,99.95
2022-10-13T08:19:30.355Z,99.92
2022-10-13T08:21:58.860Z,99.11
2022-10-13T08:24:26.904Z,99.11
2022-10-13T08:26:53.330Z,98.78
2022-10-13T08:29:22.423Z,98.43
2022-10-13T08:34:21.995Z,98.36
2022-10-13T08:36:48.850Z,98.52
2022-10-13T08:39:15.222Z,98.40
2022-10-13T08:41:45.859Z,98.56
2022-10-13T08:47:10.922Z,99.15
2022-10-13T08:49:37.302Z,99.79
2022-10-13T08:52:05.346Z,99.74
2022-10-13T08:54:32.580Z,100.00
2022-10-13T08:59:25.552Z,100.00
2022-10-13T09:01:53.837Z,100.00
2022-10-13T09:04:36.267Z,100.00
2022-10-13T09:07:02.627Z,100.00
2022-10-13T09:09:29.040Z,100.00
2022-10-13T09:11:55.453Z,100.00
2022-10-13T09:14:27.852Z,100.00
2022-10-13T09:16:55.150Z,100.00
2022-10-13T09:19:38.924Z,100.00
2022-10-13T09:22:16.627Z,100.00
2022-10-13T09:24:43.168Z,100.00
2022-10-13T09:27:14.882Z,100.00
2022-10-13T09:29:41.946Z,100.00
2022-10-13T09:32:14.321Z,100.00
2022-10-13T09:34:40.906Z,100.00
2022-10-13T09:37:17.006Z,100.00
2022-10-13T09:39:43.434Z,100.00
2022-10-13T09:42:21.843Z,100.00
2022-10-13T09:44:56.046Z,100.00
2022-10-13T09:47:22.974Z,100.00
2022-10-13T09:50:07.326Z,100.00
2022-10-13T09:52:34.721Z,100.00
2022-10-13T09:55:01.110Z,100.00
2022-10-13T09:57:45.855Z,99.96
2022-10-13T10:00:23.660Z,100.00
2022-10-13T10:02:52.830Z,100.00
2022-10-13T10:05:19.283Z,100.00
2022-10-13T10:07:45.771Z,99.19
2022-10-13T10:10:24.913Z,96.81
2022-10-13T10:12:51.351Z,96.88
2022-10-13T10:15:21.098Z,98.26
2022-10-13T10:17:52.605Z,99.15
2022-10-13T10:20:19.012Z,98.50
2022-10-13T10:23:07.843Z,98.46
2022-10-13T10:25:51.261Z,95.51
2022-10-13T10:28:26.832Z,95.83
2022-10-13T10:30:56.750Z,95.16
2022-10-13T10:33:33.906Z,92.39
2022-10-13T10:36:08.797Z,91.71
2022-10-13T10:38:41.828Z,91.98
2022-10-13T10:41:26.998Z,91.16
2022-10-13T10:43:56.464Z,89.85
2022-10-13T10:46:27.981Z,89.62
2022-10-13T10:49:16.697Z,85.75
2022-10-13T10:51:43.644Z,87.97
2022-10-13T10:54:19.028Z,87.37
2022-10-13T10:56:52.650Z,85.87
2022-10-13T10:59:51.311Z,86.85
2022-10-13T11:02:17.906Z,85.74
2022-10-13T11:04:48.528Z,85.74
2022-10-13T11:07:23.787Z,84.72
2022-10-13T11:09:53.101Z,84.73
2022-10-13T11:12:19.793Z,85.03
2022-10-13T11:14:47.426Z,83.91
2022-10-13T11:17:18.606Z,81.53
2022-10-13T11:19:45.879Z,78.90
2022-10-13T11:22:14.164Z,78.87
2022-10-13T11:24:40.511Z,79.71
2022-10-13T11:27:16.144Z,76.43
2022-10-13T11:29:53.875Z,72.98
2022-10-13T11:32:32.956Z,70.57
2022-10-13T11:35:22.591Z,72.23
2022-10-13T11:38:17.620Z,69.01
2022-10-13T11:41:03.269Z,69.20
2022-10-13T11:43:52.844Z,70.43
2022-10-13T11:46:24.955Z,71.28
2022-10-13T11:49:20.676Z,71.92
2022-10-13T11:51:47.042Z,71.56
2022-10-13T11:54:13.406Z,68.76
2022-10-13T11:56:49.594Z,69.77
2022-10-13T11:59:24.052Z,67.12
2022-10-13T12:01:54.784Z,67.03
2022-10-13T12:04:22.832Z,65.20
2022-10-13T12:06:54.073Z,67.14
2022-10-13T12:09:21.429Z,67.77
2022-10-13T12:11:55.407Z,67.30
2022-10-13T12:14:30.876Z,64.56
2022-10-13T12:16:58.123Z,62.11
2022-10-13T12:19:25.637Z,62.25
2022-10-13T12:21:53.880Z,61.62
2022-10-13T12:24:22.536Z,61.87
2022-10-13T12:26:49.387Z,61.25
2022-10-13T12:29:17.268Z,61.43
2022-10-13T12:31:48.458Z,61.90
2022-10-13T12:34:36.010Z,61.02
2022-10-13T12:37:04.875Z,60.37
2022-10-13T12:39:32.436Z,60.52
2022-10-13T12:42:00.788Z,60.10
2022-10-13T12:44:29.386Z,60.39
2022-10-13T12:46:59.425Z,59.88
2022-10-13T12:49:27.645Z,59.92
2022-10-13T12:51:56.483Z,60.30
2022-10-13T12:54:28.950Z,59.65
2022-10-13T12:56:57.451Z,59.89
2022-10-13T12:59:24.725Z,58.56
2022-10-13T13:01:58.970Z,58.96
2022-10-13T13:04:43.688Z,59.85
2022-10-13T13:07:28.485Z,59.59
2022-10-13T13:10:15.430Z,59.63
2022-10-13T13:12:42.410Z,59.71
2022-10-13T13:15:27.273Z,59.40
2022-10-13T13:17:59.051Z,61.02
2022-10-13T13:20:27.403Z,60.40
2022-10-13T13:22:54.258Z,59.88
2022-10-13T13:25:20.757Z,59.87
2022-10-13T13:27:47.411Z,59.74
2022-10-13T13:30:15.836Z,57.01
2022-10-13T13:32:42.493Z,57.02
2022-10-13T13:35:09.525Z,59.17
2022-10-13T13:37:40.062Z,56.42
2022-10-13T13:40:07.190Z,56.95
2022-10-13T13:42:33.583Z,58.72
2022-10-13T13:44:59.992Z,59.27
2022-10-13T13:47:27.931Z,59.98
2022-10-13T13:49:55.991Z,59.47
2022-10-13T13:52:23.375Z,60.49
2022-10-13T13:54:50.837Z,61.71
2022-10-13T13:57:18.279Z,62.73
2022-10-13T13:59:45.431Z,63.41
2022-10-13T14:02:14.325Z,64.06
2022-10-13T14:04:40.863Z,63.32
2022-10-13T14:07:07.250Z,63.91
2022-10-13T14:09:33.706Z,63.84
2022-10-13T14:12:00.125Z,64.27
2022-10-13T14:14:26.546Z,64.90
2022-10-13T14:16:52.950Z,65.37
2022-10-13T14:19:19.320Z,65.97
2022-10-13T14:21:46.001Z,66.56
2022-10-13T14:24:12.387Z,67.17
2022-10-13T14:26:39.186Z,66.92
2022-10-13T14:29:05.576Z,67.77
2022-10-13T14:31:32.264Z,67.83
2022-10-13T14:33:58.688Z,69.06
2022-10-13T14:36:25.196Z,68.69
2022-10-13T14:38:51.599Z,69.29
2022-10-13T14:41:18.307Z,69.49
2022-10-13T14:43:44.706Z,69.13
2022-10-13T14:46:11.416Z,69.35
2022-10-13T14:48:38.069Z,69.24
2022-10-13T14:51:08.106Z,69.76
2022-10-13T14:53:35.056Z,70.20
2022-10-13T14:56:01.503Z,70.25
2022-10-13T14:58:28.133Z,70.72
2022-10-13T15:00:55.633Z,71.03
2022-10-13T15:03:23.010Z,71.04
2022-10-13T15:05:49.449Z,71.35
2022-10-13T15:08:15.852Z,71.73
2022-10-13T15:10:42.268Z,71.77
2022-10-13T15:13:08.622Z,72.20
2022-10-13T15:15:35.000Z,72.79
2022-10-13T15:18:01.390Z,72.87
2022-10-13T15:20:29.133Z,72.90
2022-10-13T15:22:55.522Z,73.21
2022-10-13T15:25:21.903Z,73.48
2022-10-13T15:27:48.266Z,73.53
2022-10-13T15:30:14.736Z,74.05
2022-10-13T15:32:41.203Z,74.39
2022-10-13T15:35:07.881Z,74.33
2022-10-13T15:37:34.225Z,74.67
2022-10-13T15:40:00.717Z,74.53
2022-10-13T15:42:27.142Z,74.94
2022-10-13T15:45:10.898Z,75.22
2022-10-13T15:47:38.169Z,75.35
2022-10-13T15:50:04.694Z,75.24
2022-10-13T15:52:34.976Z,75.29
2022-10-13T15:55:01.811Z,75.52
2022-10-13T15:57:28.193Z,75.51
2022-10-13T15:59:54.549Z,75.49
2022-10-13T16:02:21.951Z,75.74
2022-10-13T16:04:48.696Z,76.11
2022-10-13T16:07:15.106Z,76.40
2022-10-13T16:09:41.472Z,76.80
2022-10-13T16:12:07.865Z,76.78
2022-10-13T16:14:34.234Z,77.22
2022-10-13T16:17:00.691Z,76.99
2022-10-13T16:19:27.081Z,77.48
2022-10-13T16:21:53.489Z,77.67
2022-10-13T16:24:19.878Z,77.27
2022-10-13T16:26:46.332Z,77.60
2022-10-13T16:29:12.702Z,77.94
2022-10-13T16:31:39.105Z,78.12
2022-10-13T16:34:05.472Z,78.43
2022-10-13T16:36:31.842Z,78.33
2022-10-13T16:38:59.002Z,78.79
2022-10-13T16:41:25.805Z,79.00
2022-10-13T16:43:52.180Z,79.08
2022-10-13T16:46:19.284Z,79.17
2022-10-13T16:48:45.890Z,79.16
2022-10-13T16:51:13.510Z,79.58
2022-10-13T16:53:40.113Z,79.54
2022-10-13T16:56:07.027Z,79.53
2022-10-13T16:58:33.690Z,79.64
2022-10-13T17:01:10.158Z,79.80
2022-10-13T17:03:37.040Z,79.92
2022-10-13T17:06:03.622Z,80.14
2022-10-13T17:08:30.162Z,80.28
2022-10-13T17:10:58.416Z,80.78
2022-10-13T17:13:25.111Z,81.05
2022-10-13T17:15:55.398Z,80.98
2022-10-13T17:18:22.029Z,80.91
2022-10-13T17:20:56.169Z,81.25
2022-10-13T17:23:23.056Z,81.15
2022-10-13T17:25:49.542Z,81.37
2022-10-13T17:28:16.088Z,82.03
2022-10-13T17:30:42.708Z,81.92
2022-10-13T17:33:09.304Z,81.83
2022-10-13T17:35:35.738Z,82.11
2022-10-13T17:38:02.150Z,82.71
2022-10-13T17:40:28.559Z,82.05
2022-10-13T17:42:55.192Z,81.96
2022-10-13T17:45:22.911Z,82.41
2022-10-13T17:47:49.894Z,82.71
2022-10-13T17:50:16.948Z,82.98
2022-10-13T17:52:43.364Z,82.92
2022-10-13T17:55:10.694Z,83.40
2022-10-13T17:57:37.134Z,83.98
2022-10-13T18:00:04.392Z,83.47
2022-10-13T18:02:30.813Z,83.27
2022-10-13T18:04:57.144Z,83.33
2022-10-13T18:07:23.786Z,83.18
2022-10-13T18:09:53.716Z,83.60
2022-10-13T18:12:20.105Z,83.92
2022-10-13T18:14:46.501Z,83.62
2022-10-13T18:17:12.930Z,83.14
2022-10-13T18:19:40.462Z,83.30
2022-10-13T18:22:06.985Z,83.37
2022-10-13T18:24:33.398Z,83.89
2022-10-13T18:26:59.836Z,83.55
2022-10-13T18:29:26.216Z,83.93
2022-10-13T18:31:54.189Z,83.36
2022-10-13T18:34:20.550Z,84.07
2022-10-13T18:36:48.289Z,84.02
2022-10-13T18:39:16.015Z,84.39
2022-10-13T18:41:42.557Z,84.64
2022-10-13T18:44:09.248Z,84.17
2022-10-13T18:46:36.374Z,84.29
2022-10-13T18:49:03.645Z,84.37
2022-10-13T18:51:35.596Z,85.00
2022-10-13T18:54:02.824Z,84.97
2022-10-13T18:56:30.112Z,84.96
2022-10-13T18:58:59.549Z,85.25
2022-10-13T19:01:27.063Z,85.99
2022-10-13T19:03:54.064Z,86.00
2022-10-13T19:06:25.032Z,85.95
2022-10-13T19:08:51.407Z,85.09
2022-10-13T19:11:18.766Z,85.14
2022-10-13T19:13:45.385Z,85.20
2022-10-13T19:16:12.372Z,85.54
2022-10-13T19:18:38.867Z,85.61
2022-10-13T19:21:05.602Z,85.49
2022-10-13T19:23:31.965Z,84.85
2022-10-13T19:25:58.763Z,85.35
2022-10-13T19:28:25.253Z,85.36
2022-10-13T19:30:52.242Z,85.38
2022-10-13T19:33:18.642Z,85.32
2022-10-13T19:35:46.422Z,85.42
2022-10-13T19:38:13.597Z,85.42
2022-10-13T19:40:44.031Z,85.40
2022-10-13T19:43:10.428Z,85.94
2022-10-13T19:45:36.844Z,85.56
2022-10-13T19:48:03.242Z,85.67
2022-10-13T19:50:32.360Z,85.59
2022-10-13T19:52:58.724Z,85.58
2022-10-13T19:55:25.117Z,85.58
2022-10-13T19:57:51.483Z,86.12
2022-10-13T20:00:18.066Z,86.00
2022-10-13T20:02:44.436Z,86.24
2022-10-13T20:05:10.946Z,86.20
2022-10-13T20:07:37.430Z,86.06
2022-10-13T20:10:04.007Z,85.71
2022-10-13T20:12:30.635Z,86.37
2022-10-13T20:14:57.011Z,86.00
2022-10-13T20:17:23.615Z,86.57
2022-10-13T20:19:50.390Z,86.20
2022-10-13T20:22:16.765Z,86.79
2022-10-13T20:24:44.175Z,86.67
2022-10-13T20:27:10.542Z,86.73
2022-10-13T20:29:36.915Z,86.47
2022-10-13T20:32:03.326Z,86.35
2022-10-13T20:34:29.864Z,86.50
2022-10-13T20:36:56.578Z,86.06
2022-10-13T20:39:23.030Z,86.61
2022-10-13T20:41:49.392Z,86.31
2022-10-13T20:44:15.793Z,86.45
2022-10-13T20:46:42.169Z,86.36
2022-10-13T20:49:11.935Z,86.51
2022-10-13T20:51:39.502Z,86.64
2022-10-13T20:54:06.166Z,86.31
2022-10-13T20:56:32.595Z,86.66
2022-10-13T20:59:03.098Z,86.77
2022-10-13T21:01:29.456Z,86.53
2022-10-13T21:03:56.075Z,86.69
2022-10-13T21:06:23.455Z,86.89
2022-10-13T21:08:50.060Z,86.62
2022-10-13T21:11:17.564Z,86.74
2022-10-13T21:13:44.362Z,86.55
2022-10-13T21:16:12.406Z,86.60
2022-10-13T21:18:38.803Z,86.53
2022-10-13T21:21:06.870Z,86.58
2022-10-13T21:23:33.599Z,86.57
2022-10-13T21:26:07.139Z,86.58
2022-10-13T21:28:34.019Z,86.55
2022-10-13T21:31:01.325Z,86.46
2022-10-13T21:33:27.729Z,86.55
2022-10-13T21:35:54.166Z,86.69
2022-10-13T21:38:20.553Z,86.97
2022-10-13T21:40:50.438Z,86.91
2022-10-13T21:43:19.813Z,86.96
2022-10-13T21:45:46.180Z,86.79
2022-10-13T21:48:12.610Z,86.69
2022-10-13T21:50:39.018Z,86.82
2022-10-13T21:53:05.390Z,86.89
2022-10-13T21:55:33.088Z,86.82
2022-10-13T21:58:05.242Z,86.71
2022-10-13T22:00:33.255Z,86.85
2022-10-13T22:02:59.732Z,86.49
2022-10-13T22:05:26.133Z,86.70
2022-10-13T22:07:53.080Z,86.78
2022-10-13T22:10:19.498Z,86.35
2022-10-13T22:12:45.874Z,86.69
2022-10-13T22:15:12.234Z,86.36
2022-10-13T22:17:38.600Z,86.22
2022-10-13T22:20:05.200Z,86.51
2022-10-13T22:22:31.616Z,86.62
2022-10-13T22:24:57.965Z,86.44
2022-10-13T22:27:24.348Z,86.61
2022-10-13T22:29:50.754Z,86.50
2022-10-13T22:32:17.114Z,86.47
2022-10-13T22:34:43.700Z,86.56
2022-10-13T22:37:10.100Z,86.78
2022-10-13T22:39:36.471Z,87.00
2022-10-13T22:42:02.897Z,86.60
2022-10-13T22:44:29.262Z,86.98
2022-10-13T22:46:55.632Z,86.81
2022-10-13T22:49:22.075Z,87.07
2022-10-13T22:51:48.478Z,87.15
2022-10-13T22:54:14.886Z,86.79
2022-10-13T22:56:41.682Z,86.46
2022-10-13T22:59:08.837Z,86.81
2022-10-13T23:01:35.457Z,87.04
2022-10-13T23:04:01.854Z,86.43
2022-10-13T23:06:29.787Z,86.17
2022-10-13T23:08:56.726Z,86.47
2022-10-13T23:11:23.183Z,87.00
2022-10-13T23:13:49.588Z,86.52
2022-10-13T23:16:20.540Z,86.89
2022-10-13T23:18:47.287Z,87.03
2022-10-13T23:21:15.281Z,87.34
2022-10-13T23:23:41.745Z,87.06
2022-10-13T23:26:09.591Z,87.33
2022-10-13T23:28:36.065Z,87.58
2022-10-13T23:31:03.218Z,87.50
2022-10-13T23:33:30.071Z,87.36
2022-10-13T23:35:56.951Z,87.20
2022-10-13T23:38:23.908Z,87.18
2022-10-13T23:40:50.579Z,87.21
2022-10-13T23:43:17.252Z,87.29
2022-10-13T23:45:43.638Z,87.55
2022-10-13T23:48:10.547Z,87.17
2022-10-13T23:50:37.106Z,87.56
2022-10-13T23:53:03.655Z,87.46
2022-10-13T23:55:30.092Z,87.58
2022-10-13T23:57:56.492Z,87.85
